Time;durP1;ratioP1;P1;durP2;ratioP2;P2;SDS_P1;SDS_P2;PMS_P1;PMS_P2;Temp;Humidity;BMP_temperature;BMP_pressure;BME280_temperature;BME280_humidity;BME280_pressure;Samples;Min_cycle;Max_cycle;Signal;HPM_P1;HPM_P2
2024/04/03 00:00:31;;;;;;;8.45;3.50;;;;;;;-146.27;87.72;42749.09;5084400;28;20034;-75
2024/04/03 00:02:56;;;;;;;10.75;2.97;;;;;;;-146.27;87.83;42707.31;5089542;28;20032;-75
2024/04/03 00:05:21;;;;;;;9.23;3.17;;;;;;;-146.27;87.59;42675.50;5087563;28;20499;-75
2024/04/03 00:07:47;;;;;;;10.38;3.10;;;;;;;-146.27;87.64;42655.63;5077668;28;20475;-75
2024/04/03 00:10:15;;;;;;;7.07;3.20;;;;;;;-146.27;87.69;42673.50;5083528;28;20065;-74
2024/04/03 00:12:40;;;;;;;9.90;3.35;;;;;;;-146.27;87.92;42627.78;5083015;28;20047;-73
2024/04/03 00:15:06;;;;;;;9.57;4.00;;;;;;;-146.27;88.30;42615.84;5085658;28;20451;-74
2024/04/03 00:17:32;;;;;;;11.75;4.80;;;;;;;-146.27;88.32;42591.97;5080763;28;20111;-73
2024/04/03 00:19:57;;;;;;;10.73;4.22;;;;;;;-146.27;88.26;42562.13;5093078;28;20059;-75
2024/04/03 00:22:22;;;;;;;13.02;4.13;;;;;;;-146.27;88.58;42564.13;5091349;28;20050;-74
2024/04/03 00:24:48;;;;;;;17.45;4.57;;;;;;;-146.27;88.70;42518.38;5090152;28;20492;-75
2024/04/03 00:27:13;;;;;;;11.60;4.47;;;;;;;-146.27;88.72;42500.47;5059220;28;20471;-75
2024/04/03 00:29:39;;;;;;;16.73;4.97;;;;;;;-146.27;88.73;42478.59;5046044;28;20894;-75
2024/04/03 00:32:05;;;;;;;14.38;6.10;;;;;;;-146.27;88.67;42490.53;5042434;28;20032;-74
2024/04/03 00:34:30;;;;;;;14.48;6.22;;;;;;;-146.27;88.83;42464.69;5043075;28;20025;-74
2024/04/03 00:36:55;;;;;;;15.80;6.20;;;;;;;-146.27;89.10;42436.84;5042780;28;20106;-75
2024/04/03 00:39:22;;;;;;;12.75;6.68;;;;;;;-146.27;89.20;42416.97;5048315;28;20489;-75
2024/04/03 00:41:47;;;;;;;13.75;5.82;;;;;;;-146.27;89.24;42409.00;5037663;28;20049;-74
2024/04/03 00:44:12;;;;;;;15.15;6.00;;;;;;;-146.27;89.10;42399.06;5049302;28;20068;-74
2024/04/03 00:46:38;;;;;;;15.15;6.03;;;;;;;-146.27;89.41;42428.88;5044333;28;20048;-73
2024/04/03 00:49:03;;;;;;;11.07;5.60;;;;;;;-146.27;89.21;42395.09;5048356;28;20056;-75
2024/04/03 00:51:29;;;;;;;15.13;6.10;;;;;;;-146.27;89.74;42373.22;5043574;28;20091;-74
2024/04/03 00:53:55;;;;;;;14.80;6.50;;;;;;;-146.27;89.29;42389.13;5042656;28;20362;-74
2024/04/03 00:56:23;;;;;;;13.85;6.70;;;;;;;-146.27;90.22;42373.22;5046553;28;20033;-74
2024/04/03 00:58:48;;;;;;;14.65;7.20;;;;;;;-146.27;89.96;42323.50;5050499;28;20454;-75
2024/04/03 01:01:14;;;;;;;13.40;8.02;;;;;;;-146.27;90.03;42327.47;5049323;28;20063;-75
2024/04/03 01:03:39;;;;;;;16.67;8.27;;;;;;;-146.27;90.40;42317.53;5044236;28;20048;-74
2024/04/03 01:06:05;;;;;;;16.42;8.35;;;;;;;-146.27;90.49;42293.66;5045802;28;20039;-75
2024/04/03 01:08:31;;;;;;;24.90;9.27;;;;;;;-146.27;90.35;42267.81;5039648;28;20032;-75
2024/04/03 01:10:57;;;;;;;23.60;9.45;;;;;;;-146.27;90.30;42239.97;5029965;28;20030;-74
2024/04/03 01:13:24;;;;;;;19.10;10.45;;;;;;;-146.27;90.40;42241.97;5049481;28;20025;-75
2024/04/03 01:16:00;;;;;;;19.63;10.63;;;;;;;-146.27;90.53;42222.06;5052868;28;20079;-75
2024/04/03 01:18:26;;;;;;;17.75;10.40;;;;;;;-146.27;90.58;42210.13;5047004;28;20044;-75
2024/04/03 01:20:52;;;;;;;23.50;10.43;;;;;;;-146.27;90.56;42192.25;5050098;28;20013;-75
2024/04/03 01:23:17;;;;;;;22.48;11.15;;;;;;;-146.27;90.96;42174.34;5050313;28;20032;-73
2024/04/03 01:25:43;;;;;;;26.23;11.27;;;;;;;-146.27;91.47;42172.34;5046862;28;20098;-74
2024/04/03 01:28:08;;;;;;;19.58;10.70;;;;;;;-146.27;91.53;42128.59;5083614;28;20598;-74
2024/04/03 01:30:34;;;;;;;22.00;10.98;;;;;;;-146.27;91.26;42114.69;5078447;28;20044;-75
2024/04/03 01:33:00;;;;;;;18.52;9.73;;;;;;;-146.27;91.94;42108.72;5083142;28;20615;-75
2024/04/03 01:35:26;;;;;;;16.95;9.70;;;;;;;-146.27;91.82;42066.97;5081056;28;20085;-75
2024/04/03 01:37:51;;;;;;;22.30;10.00;;;;;;;-146.27;92.53;42070.94;5086652;28;20114;-74
2024/04/03 01:40:16;;;;;;;21.45;9.35;;;;;;;-146.27;93.07;42039.13;5073897;28;20034;-74
2024/04/03 01:42:42;;;;;;;19.02;8.73;;;;;;;-146.27;92.42;42019.22;5072150;28;20500;-74
2024/04/03 01:45:07;;;;;;;21.10;9.65;;;;;;;-146.27;92.21;42011.28;5083326;28;20032;-67
2024/04/03 01:47:33;;;;;;;17.52;7.57;;;;;;;-146.27;92.68;42039.13;5084962;28;20028;-67
2024/04/03 01:49:59;;;;;;;10.45;7.20;;;;;;;-146.27;93.63;42023.22;5087739;28;20060;-66
2024/04/03 01:52:24;;;;;;;15.95;7.35;;;;;;;-146.27;93.81;41991.41;5085052;28;20535;-67
2024/04/03 01:54:50;;;;;;;14.52;7.50;;;;;;;-146.27;93.38;41991.41;5087485;28;20099;-67
2024/04/03 01:57:15;;;;;;;10.52;6.63;;;;;;;-146.27;92.71;41915.84;5089909;28;20032;-66
2024/04/03 01:59:41;;;;;;;10.90;5.80;;;;;;;-146.27;92.60;41923.78;5085131;28;20419;-67
2024/04/03 02:02:07;;;;;;;16.10;5.88;;;;;;;-146.27;93.56;41979.47;5097278;28;20023;-67
2024/04/03 02:04:32;;;;;;;11.95;5.95;;;;;;;-146.27;93.06;41949.63;5084516;28;20020;-67
2024/04/03 02:06:57;;;;;;;13.45;5.30;;;;;;;-146.27;92.97;41977.47;5082082;28;20028;-68
2024/04/03 02:09:23;;;;;;;10.73;5.15;;;;;;;-146.27;93.07;41927.75;5078907;28;20151;-66
2024/04/03 02:11:48;;;;;;;9.93;4.10;;;;;;;-146.27;93.44;41983.44;5087688;28;20110;-66
2024/04/03 02:14:13;;;;;;;11.57;4.63;;;;;;;-146.27;93.07;41981.44;5092111;28;20084;-66
2024/04/03 02:16:46;;;;;;;18.95;4.63;;;;;;;-146.27;92.96;41955.59;5093433;28;20056;-67
2024/04/03 02:19:12;;;;;;;10.00;4.40;;;;;;;-146.27;93.13;41951.63;5089134;28;20566;-67
2024/04/03 02:21:38;;;;;;;12.07;4.57;;;;;;;-146.27;92.47;41967.53;5090743;28;20289;-67
2024/04/03 02:24:04;;;;;;;11.00;4.30;;;;;;;-146.27;92.44;41951.63;5093395;28;20503;-68
2024/04/03 02:26:29;;;;;;;11.02;4.78;;;;;;;-146.27;91.89;41955.59;5076613;28;20122;-66
2024/04/03 02:28:55;;;;;;;7.82;4.82;;;;;;;-146.27;92.02;41961.56;5094197;28;20032;-66
2024/04/03 02:31:20;;;;;;;10.13;4.72;;;;;;;-146.27;91.96;41963.56;5091502;28;20429;-67
2024/04/03 02:33:46;;;;;;;13.88;5.78;;;;;;;-146.27;91.87;41927.75;5086513;28;20050;-67
2024/04/03 02:36:12;;;;;;;20.67;4.97;;;;;;;-146.27;92.75;41977.47;5092070;28;20065;-67
2024/04/03 02:38:38;;;;;;;13.02;4.38;;;;;;;-146.27;92.31;41957.59;5089414;28;20115;-67
2024/04/03 02:41:03;;;;;;;7.00;4.18;;;;;;;-146.27;92.32;41901.91;5082243;28;20092;-67
2024/04/03 02:43:29;;;;;;;11.10;4.07;;;;;;;-146.27;91.78;41941.69;5081322;28;20020;-66
2024/04/03 02:45:55;;;;;;;14.82;4.32;;;;;;;-146.27;92.06;41985.44;5077055;28;20076;-66
2024/04/03 02:48:21;;;;;;;10.43;3.83;;;;;;;-146.27;92.62;42013.28;5088336;28;20027;-66
2024/04/03 02:50:48;;;;;;;12.98;3.67;;;;;;;-146.27;91.90;41979.47;5079938;28;20054;-66
2024/04/03 02:53:15;;;;;;;10.18;3.22;;;;;;;-146.27;91.54;41975.50;5077134;28;20115;-66
2024/04/03 02:55:40;;;;;;;7.63;3.22;;;;;;;-146.27;91.14;41999.34;5088587;28;20032;-66
2024/04/03 02:58:06;;;;;;;7.63;2.95;;;;;;;-146.27;91.45;42039.13;5086916;28;20023;-67
2024/04/03 03:00:31;;;;;;;8.95;3.22;;;;;;;-146.27;91.26;42001.34;5089008;28;20023;-66
2024/04/03 03:02:56;;;;;;;6.18;2.50;;;;;;;-146.27;91.44;42015.25;5087838;28;20499;-66
2024/04/03 03:05:22;;;;;;;11.52;2.63;;;;;;;-146.27;91.19;42033.16;5086883;28;20040;-66
2024/04/03 03:07:47;;;;;;;7.43;2.60;;;;;;;-146.27;91.53;42061.00;5075762;28;20020;-67
2024/04/03 03:10:13;;;;;;;4.45;2.13;;;;;;;-146.27;92.13;42082.88;5079446;28;20473;-66
2024/04/03 03:12:38;;;;;;;7.10;2.15;;;;;;;-146.27;91.59;42019.22;5088327;28;20052;-67
2024/04/03 03:15:04;;;;;;;8.35;2.10;;;;;;;-146.27;91.40;42007.31;5081004;28;20062;-66
2024/04/03 03:17:29;;;;;;;7.13;1.60;;;;;;;-146.27;90.85;42033.16;5075259;28;20449;-67
2024/04/03 03:19:55;;;;;;;3.90;1.77;;;;;;;-146.27;90.87;42106.72;5078548;28;20020;-66
2024/04/03 03:22:20;;;;;;;5.15;1.40;;;;;;;-146.27;90.81;42035.16;5072150;28;20029;-67
2024/04/03 03:24:46;;;;;;;4.13;1.20;;;;;;;-146.27;90.71;42102.75;5082300;28;20024;-66
2024/04/03 03:27:11;;;;;;;6.15;1.70;;;;;;;-146.27;90.60;42070.94;5083412;28;20051;-68
2024/04/03 03:29:37;;;;;;;5.78;1.50;;;;;;;-146.27;90.13;42047.06;5085695;28;20039;-66
2024/04/03 03:32:02;;;;;;;7.05;1.50;;;;;;;-146.27;90.10;42130.59;5072170;28;20048;-66
2024/04/03 03:34:27;;;;;;;3.85;1.50;;;;;;;-146.27;90.10;42090.81;5082439;28;20487;-67
2024/04/03 03:36:53;;;;;;;4.60;1.00;;;;;;;-146.27;90.05;42162.41;5072047;28;20067;-67
2024/04/03 03:39:18;;;;;;;2.78;1.30;;;;;;;-146.27;89.75;42094.81;5085497;28;20039;-67
2024/04/03 03:41:44;;;;;;;8.60;1.38;;;;;;;-146.27;90.19;42158.44;5082316;28;20609;-68
2024/04/03 03:44:09;;;;;;;6.10;1.27;;;;;;;-146.27;89.93;42116.66;5088920;28;20042;-67
2024/04/03 03:46:34;;;;;;;4.55;1.17;;;;;;;-146.27;89.68;42130.59;5091324;28;20646;-67
2024/04/03 03:54:31;;;;;;;6.10;1.52;;;;;;;-146.27;89.05;42156.44;5091850;28;20056;-66
2024/04/03 03:56:58;;;;;;;4.18;1.50;;;;;;;-146.27;89.13;42160.41;5092079;28;20414;-67
2024/04/03 03:59:23;;;;;;;3.00;1.00;;;;;;;-146.27;89.76;42136.56;5091181;28;20357;-67
2024/04/03 04:01:48;;;;;;;4.88;1.45;;;;;;;-146.27;89.94;42198.19;5089768;28;20049;-66
2024/04/03 04:04:14;;;;;;;4.72;1.15;;;;;;;-146.27;90.02;42150.47;5068775;28;20146;-67
2024/04/03 04:06:39;;;;;;;3.67;1.25;;;;;;;-146.27;90.18;42198.19;5083395;28;20024;-66
2024/04/03 04:09:04;;;;;;;4.80;1.77;;;;;;;-146.27;90.25;42162.41;5084247;28;20571;-67
2024/04/03 04:11:30;;;;;;;4.55;1.52;;;;;;;-146.27;90.37;42142.53;5095661;28;20016;-67
2024/04/03 04:13:55;;;;;;;4.53;2.20;;;;;;;-146.27;90.77;42154.47;5088992;28;20480;-67
2024/04/03 04:16:21;;;;;;;6.25;2.08;;;;;;;-146.27;90.04;42154.47;5088547;28;20030;-66
2024/04/03 04:18:47;;;;;;;5.10;2.22;;;;;;;-146.27;90.15;42146.50;5080762;28;20402;-68
2024/04/03 04:21:15;;;;;;;7.30;2.33;;;;;;;-146.27;89.83;42122.63;5072222;28;20024;-67
2024/04/03 04:23:41;;;;;;;4.93;2.35;;;;;;;-146.27;90.11;42110.72;5091792;28;20020;-67
2024/04/03 04:26:06;;;;;;;7.43;2.63;;;;;;;-146.27;90.10;42146.50;5087874;28;20039;-68
2024/04/03 04:28:32;;;;;;;6.05;2.25;;;;;;;-146.27;90.41;42174.34;5088440;28;20131;-67
2024/04/03 04:30:59;;;;;;;7.82;2.25;;;;;;;-146.27;90.50;42114.69;5087080;28;20024;-66
2024/04/03 04:33:24;;;;;;;6.28;2.42;;;;;;;-146.27;90.23;42120.66;5091326;28;20036;-67
2024/04/03 04:35:54;;;;;;;6.32;2.63;;;;;;;-146.27;90.09;42098.78;5072743;28;20031;-68
2024/04/03 04:38:20;;;;;;;10.30;2.50;;;;;;;-146.27;90.35;42120.66;5085923;28;20054;-67
2024/04/03 04:40:59;;;;;;;7.97;2.42;;;;;;;-146.27;90.80;42122.63;5085234;28;20074;-67
2024/04/03 04:43:27;;;;;;;10.05;2.83;;;;;;;-146.27;90.38;42110.72;5080922;28;20035;-67
2024/04/03 04:45:57;;;;;;;5.78;2.75;;;;;;;-146.27;89.86;42080.88;5077366;28;20582;-67
2024/04/03 04:48:24;;;;;;;6.75;2.30;;;;;;;-146.27;90.26;42130.59;5091274;28;20024;-67
2024/04/03 04:50:51;;;;;;;8.80;3.00;;;;;;;-146.27;90.64;42106.72;5082333;28;20031;-68
2024/04/03 04:53:16;;;;;;;8.73;3.75;;;;;;;-146.27;91.28;42112.69;5100177;28;20034;-66
2024/04/03 04:55:42;;;;;;;6.20;2.85;;;;;;;-146.27;91.09;42080.88;5080906;28;20032;-67
2024/04/03 04:58:07;;;;;;;11.50;3.33;;;;;;;-146.27;91.45;42080.88;5083292;28;20023;-68
2024/04/03 05:00:32;;;;;;;8.05;2.88;;;;;;;-146.27;91.12;42066.97;5097291;28;20023;-68
2024/04/03 05:02:58;;;;;;;12.95;3.20;;;;;;;-146.27;91.00;42059.00;5090106;28;20024;-68
2024/04/03 05:05:23;;;;;;;7.53;2.70;;;;;;;-146.27;90.72;42043.09;5095236;28;20071;-67
2024/04/03 05:07:49;;;;;;;6.75;3.83;;;;;;;-146.27;90.87;42068.94;5079164;28;20112;-70
2024/04/03 05:10:14;;;;;;;10.55;3.92;;;;;;;-146.27;91.40;42086.84;5085672;28;20111;-68
2024/04/03 05:12:42;;;;;;;11.23;3.75;;;;;;;-146.27;91.02;42078.88;5070229;28;20021;-67
2024/04/03 05:15:08;;;;;;;10.88;4.47;;;;;;;-146.27;90.91;42064.97;5090723;28;20675;-75
2024/04/03 05:17:34;;;;;;;10.52;3.75;;;;;;;-146.27;91.30;42062.97;5082680;28;20033;-71
2024/04/03 05:19:59;;;;;;;10.50;4.25;;;;;;;-146.27;91.24;42023.22;5084193;28;20034;-75
2024/04/03 05:22:24;;;;;;;9.73;4.57;;;;;;;-146.27;91.76;42066.97;5070228;28;20020;-73
2024/04/03 05:24:53;;;;;;;11.00;4.20;;;;;;;-146.27;91.33;42041.09;5085229;28;20090;-74
2024/04/03 05:27:18;;;;;;;9.23;4.50;;;;;;;-146.27;91.27;42051.06;5043168;28;20069;-74
2024/04/03 05:29:43;;;;;;;8.73;4.22;;;;;;;-146.27;90.77;42043.09;5053913;28;20067;-74
2024/04/03 05:32:09;;;;;;;10.55;4.90;;;;;;;-146.27;90.99;42102.75;5052022;28;20104;-74
2024/04/03 05:34:34;;;;;;;9.05;3.85;;;;;;;-146.27;90.87;42062.97;5033123;28;20016;-74
2024/04/03 05:37:00;;;;;;;10.77;4.72;;;;;;;-146.27;91.02;42094.81;5047705;28;20033;-74
2024/04/03 05:39:25;;;;;;;11.38;4.38;;;;;;;-146.27;90.91;42090.81;5059677;28;20111;-74
2024/04/03 05:41:51;;;;;;;14.38;5.35;;;;;;;-146.27;90.90;42098.78;5055506;28;20021;-75
2024/04/03 05:44:16;;;;;;;11.90;4.68;;;;;;;-146.27;91.82;42158.44;5040830;28;20041;-74
2024/04/03 05:46:41;;;;;;;13.93;4.57;;;;;;;-146.27;91.09;42100.75;5033389;28;20087;-73
2024/04/03 05:49:06;;;;;;;11.70;5.03;;;;;;;-146.27;90.99;42138.53;5045613;28;20035;-72
2024/04/03 05:51:32;;;;;;;9.13;5.28;;;;;;;-146.27;90.66;42142.53;5034069;28;20451;-73
2024/04/03 05:53:57;;;;;;;10.82;4.65;;;;;;;-146.27;90.47;42148.50;5038146;28;20536;-74
2024/04/03 05:56:23;;;;;;;17.63;4.97;;;;;;;-146.27;90.79;42176.34;5043350;28;20465;-74
2024/04/03 05:58:51;;;;;;;9.98;4.35;;;;;;;-146.27;90.69;42198.19;5038525;28;20061;-74
2024/04/03 06:01:17;;;;;;;8.73;4.07;;;;;;;-146.27;91.10;42279.75;5056916;28;20025;-75
2024/04/03 06:03:42;;;;;;;13.60;5.00;;;;;;;-146.27;91.07;42291.66;5056173;28;20377;-74
2024/04/03 06:06:08;;;;;;;10.32;3.92;;;;;;;-146.27;91.63;42337.41;5056259;28;20032;-73
2024/04/03 06:08:33;;;;;;;14.40;4.60;;;;;;;-146.27;91.61;42337.41;5056334;28;20032;-76
2024/04/03 06:10:58;;;;;;;16.85;4.57;;;;;;;-146.27;91.26;42315.53;5056141;28;20029;-75
2024/04/03 06:13:24;;;;;;;8.18;4.05;;;;;;;-146.27;90.86;42343.38;5055971;28;20076;-76
2024/04/03 06:15:49;;;;;;;8.95;4.00;;;;;;;-146.27;90.80;42385.13;5041018;28;20029;-74
2024/04/03 06:18:15;;;;;;;14.65;5.78;;;;;;;-146.27;91.30;42420.94;5042274;28;20090;-75
2024/04/03 06:20:40;;;;;;;12.02;5.07;;;;;;;-146.27;90.72;42420.94;5036964;28;20016;-75
2024/04/03 06:23:08;;;;;;;9.70;4.10;;;;;;;-146.27;91.00;42512.41;5051328;28;20402;-75
2024/04/03 06:25:34;;;;;;;12.55;4.50;;;;;;;-146.27;91.10;42530.31;5057976;28;20024;-75
2024/04/03 06:27:59;;;;;;;10.18;4.65;;;;;;;-146.27;91.16;42572.09;5081727;28;20062;-75
2024/04/03 06:30:24;;;;;;;13.35;4.93;;;;;;;-146.27;90.86;42576.06;5093365;28;20786;-75
2024/04/03 06:32:50;;;;;;;9.02;3.60;;;;;;;-146.27;90.46;42611.84;5094558;28;20028;-75
2024/04/03 06:35:15;;;;;;;8.43;3.83;;;;;;;-146.27;90.51;42659.59;5100643;28;20020;-68
2024/04/03 06:37:41;;;;;;;10.00;3.78;;;;;;;-146.27;90.88;42707.31;5097185;28;20032;-69
2024/04/03 06:40:08;;;;;;;8.32;3.50;;;;;;;-146.27;91.11;42727.22;5097360;28;20028;-69
2024/04/03 06:42:34;;;;;;;12.93;3.72;;;;;;;-146.27;91.06;42711.31;5093073;28;20039;-68
2024/04/03 06:44:59;;;;;;;10.50;3.95;;;;;;;-146.27;90.62;42675.50;5106879;28;20031;-69
2024/04/03 06:47:26;;;;;;;10.60;4.25;;;;;;;-146.27;90.61;42735.16;5098392;28;20051;-68
2024/04/03 06:49:55;;;;;;;17.65;4.25;;;;;;;-146.27;90.59;42679.47;5096905;28;20028;-69
2024/04/03 06:52:21;;;;;;;12.43;4.38;;;;;;;-146.27;90.33;42699.38;5096552;28;20526;-68
2024/04/03 06:54:46;;;;;;;8.45;3.95;;;;;;;-146.27;90.37;42655.63;5095749;28;20020;-70
2024/04/03 06:57:13;;;;;;;12.35;4.38;;;;;;;-146.27;90.50;42715.28;5081696;28;20028;-69
2024/04/03 06:59:38;;;;;;;16.15;4.90;;;;;;;-146.27;90.89;42689.41;5095351;28;20031;-69
2024/04/03 07:02:04;;;;;;;7.78;4.07;;;;;;;-146.27;90.09;42677.50;5094550;28;20020;-70
2024/04/03 07:04:30;;;;;;;12.63;5.18;;;;;;;-146.27;90.15;42671.53;5077858;28;20046;-70
2024/04/03 07:06:55;;;;;;;12.30;5.28;;;;;;;-146.27;90.21;42663.56;5095147;28;20020;-69
2024/04/03 07:09:21;;;;;;;8.52;4.68;;;;;;;-146.27;89.53;42655.63;5093193;28;20024;-69
2024/04/03 07:11:46;;;;;;;13.77;5.00;;;;;;;-146.27;89.64;42675.50;5079392;28;20029;-70
2024/04/03 07:14:12;;;;;;;12.25;5.80;;;;;;;-146.27;89.45;42647.66;5091679;28;20463;-69
2024/04/03 07:16:37;;;;;;;8.02;4.88;;;;;;;-146.27;89.67;42695.38;5092965;28;20040;-69
2024/04/03 07:19:02;;;;;;;7.90;4.70;;;;;;;-146.27;89.00;42667.53;5091802;28;20272;-69
2024/04/03 07:21:29;;;;;;;11.25;5.50;;;;;;;-146.27;88.74;42649.66;5092684;28;20416;-69
2024/04/03 07:23:55;;;;;;;13.18;5.53;;;;;;;-146.27;89.27;42665.56;5092363;28;20023;-69
2024/04/03 07:26:23;;;;;;;11.60;5.68;;;;;;;-146.27;89.64;42707.31;5092419;28;20036;-69
2024/04/03 07:28:48;;;;;;;10.07;5.15;;;;;;;-146.27;89.42;42671.53;5075162;28;20024;-69
2024/04/03 07:31:14;;;;;;;13.65;5.68;;;;;;;-146.27;88.72;42689.41;5092447;28;20092;-69
2024/04/03 07:33:40;;;;;;;8.02;5.30;;;;;;;-146.27;88.62;42701.34;5090403;28;20104;-69
2024/04/03 07:36:06;;;;;;;8.68;5.40;;;;;;;-146.27;88.57;42709.31;5082703;28;20024;-70
2024/04/03 07:38:31;;;;;;;12.20;5.70;;;;;;;-146.27;88.65;42755.06;5092862;28;20476;-69
2024/04/03 07:40:57;;;;;;;8.18;5.40;;;;;;;-146.27;89.00;42770.97;5092211;28;20024;-70
2024/04/03 07:43:23;;;;;;;9.80;5.30;;;;;;;-146.27;89.36;42828.66;5091258;28;20553;-70
2024/04/03 07:45:48;;;;;;;6.20;4.20;;;;;;;-146.27;88.97;42832.63;5092089;28;20407;-74
2024/04/03 07:48:13;;;;;;;7.30;4.60;;;;;;;-146.27;88.97;42822.69;5091242;28;20111;-74
2024/04/03 07:50:40;;;;;;;6.85;4.80;;;;;;;-146.27;88.10;42743.13;5079090;28;20099;-74
2024/04/03 07:53:08;;;;;;;7.97;4.88;;;;;;;-146.27;88.57;42729.19;5092630;28;20443;-73
2024/04/03 07:55:38;;;;;;;9.30;4.80;;;;;;;-146.27;88.50;42778.91;5092622;28;20395;-73
2024/04/03 07:58:04;;;;;;;9.20;5.10;;;;;;;-146.27;88.64;42778.91;5092380;28;20536;-73
2024/04/03 08:00:29;;;;;;;6.43;4.78;;;;;;;-146.27;88.58;42751.06;5092346;28;20095;-74
2024/04/03 08:02:54;;;;;;;13.07;5.93;;;;;;;-146.27;88.28;42711.31;5092375;28;20036;-74
2024/04/03 08:05:20;;;;;;;6.50;4.45;;;;;;;-146.27;88.70;42796.81;5090510;28;20028;-75
2024/04/03 08:07:46;;;;;;;7.75;5.38;;;;;;;-146.27;88.62;42747.09;5092193;28;20028;-74
2024/04/03 08:10:12;;;;;;;7.72;5.53;;;;;;;-146.27;88.51;42715.28;5092272;28;20098;-74
2024/04/03 08:12:40;;;;;;;10.98;5.13;;;;;;;-146.27;88.52;42763.00;5092209;28;20036;-74
2024/04/03 08:15:06;;;;;;;6.28;4.43;;;;;;;-146.27;89.10;42798.81;5092097;28;20024;-74
2024/04/03 08:17:32;;;;;;;7.35;4.97;;;;;;;-146.27;88.11;42687.44;5092223;28;20369;-74
2024/04/03 08:19:58;;;;;;;8.95;5.07;;;;;;;-146.27;88.02;42778.91;5084959;28;20046;-73
2024/04/03 08:22:24;;;;;;;8.90;4.28;;;;;;;-146.27;88.05;42753.06;5090749;28;20325;-73
2024/04/03 08:24:51;;;;;;;5.47;4.40;;;;;;;-146.27;87.59;42695.38;5103586;28;20027;-74
2024/04/03 08:27:17;;;;;;;7.65;4.65;;;;;;;-146.27;88.26;42767.00;5073515;28;20048;-72
2024/04/03 08:29:43;;;;;;;9.30;4.32;;;;;;;-146.27;87.51;42707.31;5063442;28;20477;-73
2024/04/03 08:32:14;;;;;;;6.80;4.30;;;;;;;-146.27;87.80;42751.06;5051185;28;20028;-74
2024/04/03 08:34:39;;;;;;;6.40;4.32;;;;;;;-146.27;87.10;42739.16;5035285;28;20693;-73
2024/04/03 08:37:05;;;;;;;6.78;4.05;;;;;;;-146.27;86.86;42701.34;5041196;28;20116;-71
2024/04/03 08:39:32;;;;;;;7.00;4.10;;;;;;;-146.27;87.05;42778.91;5046493;28;20037;-70
2024/04/03 08:41:58;;;;;;;5.20;3.90;;;;;;;-146.27;86.93;42786.88;5051638;28;20052;-73
2024/04/03 08:44:28;;;;;;;6.28;3.60;;;;;;;-146.27;86.76;42735.16;5043264;28;20033;-72
2024/04/03 08:46:55;;;;;;;5.05;4.07;;;;;;;-146.27;87.81;42838.59;5044570;28;20026;-73
2024/04/03 08:49:22;;;;;;;8.05;4.20;;;;;;;-146.27;86.86;42731.19;5043657;28;20472;-73
2024/04/03 08:51:59;;;;;;;8.43;4.20;;;;;;;-146.27;87.26;42765.00;5049795;28;20103;-73
2024/04/03 08:54:26;;;;;;;5.60;4.00;;;;;;;-146.27;85.90;42725.22;5050547;28;20033;-66
2024/04/03 08:56:52;;;;;;;5.53;4.13;;;;;;;-146.27;86.21;42822.69;5051825;28;20863;-67
2024/04/03 08:59:19;;;;;;;4.40;4.00;;;;;;;-146.27;86.00;42739.16;5044473;28;20035;-66
2024/04/03 09:01:44;;;;;;;5.28;3.92;;;;;;;-146.27;86.71;42768.97;5051007;28;20025;-66
2024/04/03 09:04:10;;;;;;;6.25;4.20;;;;;;;-146.27;86.80;42808.75;5051683;28;20036;-67
2024/04/03 09:06:39;;;;;;;5.88;4.10;;;;;;;-146.27;86.23;42747.09;5050439;28;20024;-67
2024/04/03 09:09:04;;;;;;;5.90;4.40;;;;;;;-146.27;86.29;42770.97;5049988;28;20036;-66
2024/04/03 09:11:30;;;;;;;7.88;4.05;;;;;;;-146.27;85.80;42727.22;5050083;28;20013;-66
2024/04/03 09:13:55;;;;;;;7.43;4.25;;;;;;;-146.27;85.83;42731.19;5051502;28;20420;-67
2024/04/03 09:16:21;;;;;;;4.57;4.13;;;;;;;-146.27;85.52;42701.34;5051664;28;20029;-66
2024/04/03 09:18:48;;;;;;;5.45;4.07;;;;;;;-146.27;85.69;42707.31;5051663;28;20028;-66
2024/04/03 09:21:19;;;;;;;9.95;4.40;;;;;;;-146.27;84.89;42691.41;5053762;28;20145;-66
2024/04/03 09:23:45;;;;;;;8.13;4.72;;;;;;;-146.27;85.90;42854.50;5049182;28;20043;-66
2024/04/03 09:26:11;;;;;;;4.85;4.20;;;;;;;-146.27;85.41;42794.84;5047657;28;20021;-66
2024/04/03 09:28:36;;;;;;;5.60;4.22;;;;;;;-146.27;85.57;42796.81;5088621;28;20048;-66
2024/04/03 09:31:02;;;;;;;6.07;4.22;;;;;;;-146.27;84.78;42786.88;5087854;28;20032;-66
2024/04/03 09:33:30;;;;;;;4.70;4.18;;;;;;;-146.27;85.63;42828.66;5090119;28;20023;-68
2024/04/03 09:35:56;;;;;;;6.70;4.60;;;;;;;-146.27;84.82;42828.66;5089604;28;20031;-68
2024/04/03 09:38:21;;;;;;;4.35;3.85;;;;;;;-146.27;84.61;42723.22;5090261;28;20039;-66
2024/04/03 09:40:48;;;;;;;8.60;4.72;;;;;;;-146.27;84.48;42808.75;5088305;28;20030;-68
2024/04/03 09:43:14;;;;;;;5.35;4.75;;;;;;;-146.27;84.30;42772.97;5089900;28;20027;-67
2024/04/03 09:45:41;;;;;;;5.10;4.60;;;;;;;-146.27;83.72;42854.50;5072500;28;20387;-68
2024/04/03 09:48:09;;;;;;;7.45;5.75;;;;;;;-146.27;85.72;42914.16;5084655;28;20030;-68
2024/04/03 09:50:44;;;;;;;7.05;6.28;;;;;;;-146.27;85.30;42826.66;5084348;28;20701;-66
2024/04/03 09:53:15;;;;;;;8.95;7.00;;;;;;;-146.27;86.28;42854.50;5089580;28;20074;-66
2024/04/03 09:55:43;;;;;;;7.20;6.45;;;;;;;-146.27;86.82;42854.50;5082886;28;20027;-69
2024/04/03 09:58:13;;;;;;;8.00;7.20;;;;;;;-146.27;86.92;42836.59;5084665;28;20045;-67
2024/04/03 10:00:39;;;;;;;7.55;6.80;;;;;;;-146.27;87.49;42838.59;5071985;28;20107;-67
2024/04/03 10:03:05;;;;;;;9.10;6.47;;;;;;;-146.27;87.24;42796.81;5091359;28;20717;-68
2024/04/03 10:05:40;;;;;;;8.82;7.28;;;;;;;-146.27;87.81;42778.91;5087390;28;20115;-69
2024/04/03 10:08:10;;;;;;;7.78;6.97;;;;;;;-146.27;86.50;42639.69;5089621;28;20028;-69
2024/04/03 10:10:44;;;;;;;7.00;6.30;;;;;;;-146.27;85.64;42679.47;5087500;28;20021;-68
2024/04/03 10:13:28;;;;;;;10.13;6.18;;;;;;;-146.27;86.75;42763.00;5090404;28;20039;-69
2024/04/03 10:16:04;;;;;;;10.60;6.28;;;;;;;-146.27;85.36;42593.97;5089784;28;20373;-69
2024/04/03 10:18:40;;;;;;;5.70;5.20;;;;;;;-146.27;85.87;42589.97;5088756;28;20024;-69
2024/04/03 10:21:07;;;;;;;7.32;4.82;;;;;;;-146.27;85.15;42603.91;5090234;28;20051;-68
2024/04/03 10:23:50;;;;;;;4.95;4.45;;;;;;;-146.27;86.39;42619.81;5090298;28;20032;-69
2024/04/03 10:26:17;;;;;;;5.23;4.10;;;;;;;-146.27;87.05;42731.19;5080892;28;20428;-69
2024/04/03 10:28:44;;;;;;;3.90;3.50;;;;;;;-146.27;86.39;42705.34;5089779;28;20587;-69
2024/04/03 10:31:16;;;;;;;5.22;3.80;;;;;;;-146.27;87.13;42763.00;5088024;28;20043;-69
2024/04/03 10:33:42;;;;;;;4.18;3.78;;;;;;;-146.27;87.90;42737.16;5090298;28;20024;-69
2024/04/03 10:36:08;;;;;;;4.80;3.88;;;;;;;-146.27;87.04;42627.78;5089880;28;20031;-69
2024/04/03 10:38:34;;;;;;;4.55;3.30;;;;;;;-146.27;86.67;42663.56;5090308;28;20110;-68
2024/04/03 10:41:00;;;;;;;3.15;2.85;;;;;;;-146.27;86.81;42647.66;5096295;28;20020;-69
2024/04/03 10:43:25;;;;;;;3.67;3.38;;;;;;;-146.27;87.84;42705.34;5112033;28;20020;-70
2024/04/03 10:45:51;;;;;;;7.43;3.83;;;;;;;-146.27;88.27;42675.50;5093799;28;20024;-69
2024/04/03 10:48:17;;;;;;;4.40;4.00;;;;;;;-146.27;87.10;42599.94;5093669;28;20084;-68
2024/04/03 10:50:44;;;;;;;4.07;3.35;;;;;;;-146.27;88.25;42627.78;5099763;28;20024;-70
2024/04/03 10:53:10;;;;;;;6.15;3.47;;;;;;;-146.27;88.21;42603.91;5114172;28;20024;-69
2024/04/03 10:55:39;;;;;;;5.82;4.38;;;;;;;-146.27;89.23;42591.97;5100798;28;20391;-69
2024/04/03 10:58:06;;;;;;;7.13;4.72;;;;;;;-146.27;89.64;42639.69;5093654;28;20028;-68
2024/04/03 11:00:37;;;;;;;6.85;4.35;;;;;;;-146.27;90.58;42584.00;5093760;28;20016;-69
2024/04/03 11:03:03;;;;;;;5.05;4.43;;;;;;;-146.27;90.53;42454.75;5092082;28;20035;-68
2024/04/03 11:05:29;;;;;;;6.47;4.32;;;;;;;-146.27;89.92;42476.63;5076944;28;20028;-69
2024/04/03 11:07:56;;;;;;;7.85;5.25;;;;;;;-146.27;89.53;42432.88;5092878;28;20101;-70
2024/04/03 11:10:21;;;;;;;5.93;4.72;;;;;;;-146.27;89.40;42472.66;5096171;28;20020;-68
2024/04/03 11:12:47;;;;;;;5.65;4.03;;;;;;;-146.27;89.24;42399.06;5098672;28;20380;-68
2024/04/03 11:15:13;;;;;;;8.48;5.75;;;;;;;-146.27;89.42;42377.19;5091133;28;20034;-74